createdAt,value
2023-05-04T00:00:07.889Z,7.30
2023-05-04T00:02:38.203Z,8.47
2023-05-04T00:05:07.653Z,8.57
2023-05-04T00:07:36.640Z,7.20
2023-05-04T00:10:05.742Z,7.83
2023-05-04T00:12:34.990Z,8.10
2023-05-04T00:15:04.344Z,6.43
2023-05-04T00:17:33.143Z,7.03
2023-05-04T00:20:03.315Z,7.03
2023-05-04T00:22:31.974Z,7.43
2023-05-04T00:25:01.158Z,8.30
2023-05-04T00:27:30.824Z,7.97
2023-05-04T00:29:59.495Z,8.20
2023-05-04T00:32:27.960Z,7.63
2023-05-04T00:35:06.970Z,8.30
2023-05-04T00:37:36.025Z,7.57
2023-05-04T00:40:11.197Z,7.57
2023-05-04T00:42:47.307Z,8.27
2023-05-04T00:45:16.744Z,7.30
2023-05-04T00:47:51.735Z,8.70
2023-05-04T00:50:22.303Z,6.83
2023-05-04T00:52:53.740Z,8.33
2023-05-04T00:55:22.698Z,8.73
2023-05-04T00:57:54.439Z,9.43
2023-05-04T01:00:25.310Z,7.30
2023-05-04T01:02:53.927Z,7.90
2023-05-04T01:05:24.035Z,8.83
2023-05-04T01:07:58.157Z,8.63
2023-05-04T01:10:29.639Z,7.20
2023-05-04T01:13:13.774Z,8.37
2023-05-04T01:15:43.352Z,7.30
2023-05-04T01:18:12.039Z,9.13
2023-05-04T01:20:43.201Z,8.50
2023-05-04T01:23:14.693Z,8.87
2023-05-04T01:25:46.414Z,7.97
2023-05-04T01:28:17.668Z,7.73
2023-05-04T01:30:46.848Z,8.27
2023-05-04T01:33:16.117Z,9.07
2023-05-04T01:35:44.921Z,8.50
2023-05-04T01:38:15.694Z,9.03
2023-05-04T01:40:44.620Z,8.50
2023-05-04T01:43:14.531Z,7.23
2023-05-04T01:45:43.555Z,8.43
2023-05-04T01:48:12.444Z,9.03
2023-05-04T01:50:41.302Z,7.97
2023-05-04T01:53:09.754Z,9.60
2023-05-04T01:55:51.554Z,8.30
2023-05-04T01:58:21.292Z,8.20
2023-05-04T02:00:50.075Z,8.03
2023-05-04T02:03:19.223Z,8.03
2023-05-04T02:05:49.051Z,8.60
2023-05-04T02:08:18.419Z,8.47
2023-05-04T02:10:47.611Z,8.33
2023-05-04T02:13:18.053Z,9.00
2023-05-04T02:15:47.777Z,9.60
2023-05-04T02:18:17.633Z,9.60
2023-05-04T02:20:46.341Z,9.27
2023-05-04T02:23:15.108Z,8.90
2023-05-04T02:25:44.033Z,7.30
2023-05-04T02:28:12.777Z,9.77
2023-05-04T02:30:44.891Z,8.70
2023-05-04T02:33:14.193Z,9.20
2023-05-04T02:35:43.609Z,9.00
2023-05-04T02:38:12.130Z,9.03
2023-05-04T02:40:41.911Z,8.87
2023-05-04T02:43:10.471Z,9.07
2023-05-04T02:45:39.050Z,8.60
2023-05-04T02:48:12.248Z,9.23
2023-05-04T02:50:41.037Z,10.03
2023-05-04T02:53:10.070Z,9.00
2023-05-04T02:55:38.698Z,8.03
2023-05-04T02:58:09.277Z,7.73
2023-05-04T03:00:38.071Z,9.37
2023-05-04T03:03:06.833Z,9.33
2023-05-04T03:05:37.375Z,8.97
2023-05-04T03:08:06.169Z,9.63
2023-05-04T03:10:34.602Z,8.23
2023-05-04T03:13:06.744Z,8.60
2023-05-04T03:15:35.595Z,8.60
2023-05-04T03:18:06.638Z,9.93
2023-05-04T03:20:36.762Z,10.23
2023-05-04T03:23:05.384Z,8.87
2023-05-04T03:25:33.911Z,10.60
2023-05-04T03:28:02.438Z,9.30
2023-05-04T03:30:31.232Z,9.53
2023-05-04T03:33:00.346Z,9.87
2023-05-04T03:35:29.414Z,9.97
2023-05-04T03:37:59.439Z,9.23
2023-05-04T03:40:28.216Z,9.50
2023-05-04T03:42:57.127Z,9.77
2023-05-04T03:45:28.687Z,8.13
2023-05-04T03:47:57.741Z,9.80
2023-05-04T03:50:26.779Z,9.30
2023-05-04T03:52:56.150Z,9.23
2023-05-04T03:55:26.579Z,9.37
2023-05-04T03:57:57.590Z,9.83
2023-05-04T04:00:26.592Z,9.20
2023-05-04T04:02:55.192Z,9.73
2023-05-04T04:05:24.013Z,11.50
2023-05-04T04:07:52.450Z,9.23
2023-05-04T04:10:21.183Z,8.30
2023-05-04T04:12:55.430Z,9.00
2023-05-04T04:15:25.036Z,8.00
2023-05-04T04:17:54.093Z,8.63
2023-05-04T04:20:23.105Z,9.47
2023-05-04T04:22:52.226Z,9.60
2023-05-04T04:25:21.638Z,9.80
2023-05-04T04:27:52.325Z,9.37
2023-05-04T04:30:21.934Z,9.90
2023-05-04T04:32:50.847Z,10.37
2023-05-04T04:35:19.399Z,9.43
2023-05-04T04:37:47.989Z,11.20
2023-05-04T04:40:17.708Z,11.40
2023-05-04T04:42:46.278Z,9.60
2023-05-04T04:45:16.829Z,9.30
2023-05-04T04:47:45.637Z,9.73
2023-05-04T04:50:14.408Z,11.00
2023-05-04T04:52:43.018Z,10.80
2023-05-04T04:55:11.886Z,12.37
2023-05-04T04:57:40.570Z,11.13
2023-05-04T05:00:11.105Z,11.10
2023-05-04T05:02:41.603Z,11.90
2023-05-04T05:05:18.857Z,12.20
2023-05-04T05:08:09.844Z,12.10
2023-05-04T05:10:38.476Z,10.90
2023-05-04T05:13:07.078Z,12.00
2023-05-04T05:15:37.476Z,12.70
2023-05-04T05:18:07.886Z,12.43
2023-05-04T05:20:39.377Z,12.13
2023-05-04T05:23:08.282Z,13.70
2023-05-04T05:25:37.227Z,12.13
2023-05-04T05:28:05.729Z,11.20
2023-05-04T05:30:34.325Z,12.13
2023-05-04T05:33:20.251Z,11.20
2023-05-04T05:35:50.126Z,11.00
2023-05-04T05:38:19.448Z,10.37
2023-05-04T05:40:49.321Z,10.37
2023-05-04T05:43:18.074Z,9.80
2023-05-04T05:45:47.286Z,8.67
2023-05-04T05:48:16.560Z,9.40
2023-05-04T05:50:48.564Z,9.40
2023-05-04T05:53:17.084Z,10.30
2023-05-04T05:55:46.271Z,10.17
2023-05-04T05:58:14.789Z,8.23
2023-05-04T06:00:43.174Z,9.27
2023-05-04T06:03:19.898Z,8.27
2023-05-04T06:05:50.171Z,8.50
2023-05-04T06:08:19.597Z,8.33
2023-05-04T06:10:48.654Z,7.43
2023-05-04T06:13:17.674Z,7.60
2023-05-04T06:15:53.810Z,8.83
2023-05-04T06:18:27.833Z,8.53
2023-05-04T06:21:02.624Z,7.07
2023-05-04T06:23:31.965Z,8.97
2023-05-04T06:26:00.913Z,7.80
2023-05-04T06:28:35.841Z,6.63
2023-05-04T06:31:10.013Z,6.27
2023-05-04T06:33:39.036Z,6.30
2023-05-04T06:36:16.550Z,6.67
2023-05-04T06:38:45.771Z,5.57
2023-05-04T06:41:14.348Z,6.67
2023-05-04T06:43:43.803Z,5.10
2023-05-04T06:46:12.478Z,6.07
2023-05-04T06:48:41.339Z,6.60
2023-05-04T06:51:13.836Z,7.73
2023-05-04T06:53:48.217Z,6.70
2023-05-04T06:56:17.753Z,7.20
2023-05-04T06:58:51.641Z,6.03
2023-05-04T07:01:20.510Z,6.20
2023-05-04T07:03:49.828Z,5.30
2023-05-04T07:06:32.944Z,5.90
2023-05-04T07:09:17.359Z,4.80
2023-05-04T07:11:45.964Z,5.70
2023-05-04T07:14:16.289Z,4.90
2023-05-04T07:16:47.131Z,5.53
2023-05-04T07:19:16.532Z,5.20
2023-05-04T07:21:52.819Z,5.80
2023-05-04T07:24:25.773Z,5.33
2023-05-04T07:26:54.448Z,4.93
2023-05-04T07:29:23.271Z,5.03
2023-05-04T07:31:52.891Z,5.20
2023-05-04T07:34:30.572Z,4.10
2023-05-04T07:37:18.543Z,4.77
2023-05-04T07:39:56.328Z,4.50
2023-05-04T07:42:45.157Z,4.13
2023-05-04T07:45:16.373Z,4.47
2023-05-04T07:47:45.465Z,4.17
2023-05-04T07:50:19.517Z,3.97
2023-05-04T07:53:02.350Z,4.20
2023-05-04T07:55:49.459Z,3.87
2023-05-04T07:58:17.972Z,3.40
2023-05-04T08:00:47.740Z,3.90
2023-05-04T08:03:17.020Z,3.87
2023-05-04T08:05:46.305Z,3.27
2023-05-04T08:08:16.731Z,3.07
2023-05-04T08:11:07.877Z,3.13
2023-05-04T08:13:39.583Z,2.93
2023-05-04T08:16:11.728Z,2.77
2023-05-04T08:18:46.699Z,3.40
2023-05-04T08:21:48.167Z,3.63
2023-05-04T08:24:30.714Z,2.47
2023-05-04T08:27:12.283Z,3.57
2023-05-04T08:29:41.789Z,3.20
2023-05-04T08:32:22.384Z,3.53
2023-05-04T08:34:54.617Z,3.20
2023-05-04T08:37:33.034Z,3.17
2023-05-04T08:40:34.430Z,3.00
2023-05-04T08:43:12.179Z,2.97
2023-05-04T08:46:15.949Z,2.93
2023-05-04T08:48:51.131Z,2.73
2023-05-04T08:51:46.041Z,2.27
2023-05-04T08:54:15.205Z,3.57
2023-05-04T08:57:04.918Z,2.60
2023-05-04T08:59:45.070Z,3.33
2023-05-04T09:06:02.501Z,3.23
2023-05-04T09:08:31.094Z,3.57
2023-05-04T09:14:12.676Z,3.33
2023-05-04T09:17:08.556Z,3.17
2023-05-04T09:19:39.284Z,3.47
2023-05-04T09:22:24.356Z,3.00
2023-05-04T09:24:54.262Z,3.17
2023-05-04T09:27:25.051Z,3.63
2023-05-04T09:30:10.471Z,2.83
2023-05-04T09:36:02.134Z,3.00
2023-05-04T09:38:34.313Z,3.40
2023-05-04T09:41:26.557Z,2.90
2023-05-04T09:44:36.367Z,3.20
2023-05-04T09:47:06.021Z,3.67
2023-05-04T09:49:36.505Z,4.00
2023-05-04T09:56:24.936Z,3.00
2023-05-04T09:59:09.357Z,3.80
2023-05-04T10:01:44.871Z,3.27
2023-05-04T10:04:25.349Z,3.73
2023-05-04T10:06:55.360Z,3.37
2023-05-04T10:09:25.496Z,3.93
2023-05-04T10:11:54.821Z,3.57
2023-05-04T10:14:26.015Z,3.87
2023-05-04T10:30:43.278Z,3.27
2023-05-04T10:33:40.096Z,3.30
2023-05-04T10:36:14.527Z,4.30
2023-05-04T10:39:26.076Z,3.57
2023-05-04T10:42:18.744Z,4.00
2023-05-04T10:44:55.522Z,3.80
2023-05-04T10:47:34.958Z,4.50
2023-05-04T10:53:50.907Z,2.73
2023-05-04T10:56:28.336Z,3.30
2023-05-04T10:59:31.773Z,3.73
2023-05-04T11:02:03.881Z,4.60
2023-05-04T11:07:57.286Z,4.17
2023-05-04T11:10:30.860Z,3.37
2023-05-04T11:13:22.031Z,4.33
2023-05-04T11:16:05.435Z,3.77
2023-05-04T11:18:38.085Z,3.50
2023-05-04T11:21:10.075Z,3.30
2023-05-04T11:23:40.765Z,3.70
2023-05-04T11:32:35.909Z,3.90
2023-05-04T11:38:22.977Z,3.37
2023-05-04T11:40:51.364Z,4.40
2023-05-04T11:43:20.408Z,3.97
2023-05-04T11:45:50.592Z,5.33
2023-05-04T11:48:30.600Z,4.00
2023-05-04T11:51:05.922Z,4.90
2023-05-04T11:53:38.932Z,3.77
2023-05-04T11:56:39.094Z,4.60
2023-05-04T11:59:20.907Z,3.97
2023-05-04T12:05:37.762Z,4.50
2023-05-04T12:15:03.291Z,3.20
2023-05-04T12:18:17.291Z,3.53
2023-05-04T12:21:12.733Z,3.73
2023-05-04T12:23:58.943Z,4.03
2023-05-04T12:26:27.551Z,4.17
2023-05-04T12:29:40.281Z,4.90
2023-05-04T12:32:30.616Z,3.87
2023-05-04T12:38:33.766Z,3.57
2023-05-04T12:44:11.587Z,4.53
2023-05-04T12:47:01.411Z,4.47
2023-05-04T12:52:51.813Z,4.77
2023-05-04T12:55:39.989Z,4.07
2023-05-04T12:58:59.957Z,3.50
2023-05-04T13:01:38.682Z,3.93
2023-05-04T13:04:46.910Z,4.80
2023-05-04T13:07:42.534Z,4.20
2023-05-04T13:10:14.504Z,4.63
2023-05-04T13:12:51.561Z,4.40
2023-05-04T13:18:50.453Z,4.37
2023-05-04T13:21:31.644Z,4.77
2023-05-04T13:24:10.374Z,5.03
2023-05-04T13:26:54.701Z,4.63
2023-05-04T13:33:07.741Z,3.77
2023-05-04T13:35:50.274Z,4.10
2023-05-04T13:38:44.393Z,4.20
2023-05-04T13:44:23.397Z,4.30
2023-05-04T13:46:55.554Z,3.83
2023-05-04T13:49:31.290Z,4.40
2023-05-04T13:52:02.953Z,3.50
2023-05-04T13:54:34.432Z,4.00
2023-05-04T14:11:03.579Z,3.03
2023-05-04T14:13:39.842Z,2.93
2023-05-04T14:16:48.257Z,3.60
2023-05-04T14:22:22.539Z,3.03
2023-05-04T14:25:32.532Z,3.47
2023-05-04T14:28:12.246Z,3.57
2023-05-04T14:30:48.785Z,2.70
2023-05-04T14:33:49.548Z,3.30
2023-05-04T14:36:40.975Z,3.10
2023-05-04T14:39:24.370Z,3.00
2023-05-04T14:41:54.138Z,2.07
2023-05-04T14:44:49.893Z,3.73
2023-05-04T14:47:26.700Z,2.80
2023-05-04T14:49:55.114Z,2.60
2023-05-04T14:52:23.402Z,3.13
2023-05-04T14:54:51.711Z,2.80
2023-05-04T14:57:19.948Z,3.57
2023-05-04T14:59:49.271Z,3.10
2023-05-04T15:02:18.703Z,3.13
2023-05-04T15:04:48.676Z,3.40
2023-05-04T15:07:20.536Z,2.23
2023-05-04T15:09:48.950Z,2.87
2023-05-04T15:12:17.606Z,2.73
2023-05-04T15:14:46.156Z,2.83
2023-05-04T15:17:14.484Z,3.00
2023-05-04T15:19:43.555Z,2.93
2023-05-04T15:22:13.248Z,2.90
2023-05-04T15:24:41.405Z,3.07
2023-05-04T15:27:09.633Z,1.87
2023-05-04T15:29:37.864Z,3.57
2023-05-04T15:32:06.721Z,2.50
2023-05-04T15:34:34.918Z,3.33
2023-05-04T15:37:03.180Z,3.50
2023-05-04T15:39:33.163Z,2.87
2023-05-04T15:42:01.386Z,3.43
2023-05-04T15:44:29.854Z,3.40
2023-05-04T15:46:58.113Z,2.80
2023-05-04T15:49:27.509Z,2.70
2023-05-04T15:52:01.121Z,3.00
2023-05-04T15:54:30.029Z,3.03
2023-05-04T15:57:00.399Z,3.43
2023-05-04T15:59:29.726Z,2.73
2023-05-04T16:02:02.663Z,3.40
2023-05-04T16:04:32.591Z,3.17
2023-05-04T16:07:04.405Z,3.33
2023-05-04T16:09:33.680Z,3.20
2023-05-04T16:12:11.244Z,3.33
2023-05-04T16:14:40.684Z,2.87
2023-05-04T16:17:10.044Z,2.43
2023-05-04T16:19:43.957Z,3.77
2023-05-04T16:22:15.407Z,3.33
2023-05-04T16:24:44.474Z,2.90
2023-05-04T16:27:18.475Z,3.07
2023-05-04T16:29:47.605Z,3.20
2023-05-04T16:32:17.808Z,2.73
2023-05-04T16:34:47.087Z,3.87
2023-05-04T16:37:16.352Z,3.10
2023-05-04T16:39:45.693Z,2.30
2023-05-04T16:42:16.421Z,3.13
2023-05-04T16:44:54.969Z,2.90
2023-05-04T16:47:23.729Z,3.43
2023-05-04T16:49:53.264Z,2.70
2023-05-04T16:52:24.193Z,2.90
2023-05-04T16:54:56.098Z,1.70
2023-05-04T16:57:27.497Z,2.40
2023-05-04T16:59:57.109Z,2.60
2023-05-04T17:02:26.555Z,2.47
2023-05-04T17:04:57.845Z,2.23
2023-05-04T17:07:26.742Z,2.70
2023-05-04T17:09:56.265Z,3.17
2023-05-04T17:12:29.132Z,2.50
2023-05-04T17:14:59.460Z,2.70
2023-05-04T17:17:37.018Z,2.90
2023-05-04T17:20:22.117Z,2.57
2023-05-04T17:22:52.133Z,1.93
2023-05-04T17:25:21.667Z,2.40
2023-05-04T17:27:57.882Z,2.43
2023-05-04T17:30:34.547Z,2.70
2023-05-04T17:33:03.314Z,2.53
2023-05-04T17:35:42.317Z,2.23
2023-05-04T17:38:11.353Z,2.60
2023-05-04T17:40:40.453Z,1.90
2023-05-04T17:43:16.213Z,2.10
2023-05-04T17:45:51.613Z,2.23
2023-05-04T17:48:25.266Z,2.50
2023-05-04T17:51:02.756Z,2.00
2023-05-04T17:53:41.594Z,1.90
2023-05-04T17:56:12.359Z,2.83
2023-05-04T17:59:00.892Z,2.07
2023-05-04T18:01:30.156Z,2.10
2023-05-04T18:04:04.442Z,2.53
2023-05-04T18:06:51.960Z,2.23
2023-05-04T18:12:36.325Z,2.27
2023-05-04T18:21:56.245Z,1.90
2023-05-04T18:24:44.766Z,1.90
2023-05-04T18:40:20.790Z,2.13
2023-05-04T18:43:29.580Z,2.13
2023-05-04T18:46:20.695Z,1.97
2023-05-04T18:52:28.760Z,2.10
2023-05-04T18:55:34.073Z,2.27
2023-05-04T18:58:31.149Z,2.37
2023-05-04T19:01:01.974Z,2.53
2023-05-04T19:03:30.779Z,1.73
2023-05-04T19:06:04.370Z,1.83
2023-05-04T19:08:32.882Z,2.07
2023-05-04T19:11:03.959Z,2.23
2023-05-04T19:13:32.564Z,1.73
2023-05-04T19:26:14.468Z,1.70
2023-05-04T19:29:03.578Z,1.40
2023-05-04T19:31:54.501Z,1.90
2023-05-04T19:37:26.307Z,2.50
2023-05-04T19:43:10.837Z,1.80
2023-05-04T19:49:03.825Z,1.97
2023-05-04T19:51:53.061Z,1.70
2023-05-04T19:54:28.238Z,1.73
2023-05-04T19:57:19.613Z,1.87
2023-05-04T20:00:28.971Z,2.30
2023-05-04T20:03:47.016Z,2.00
2023-05-04T20:06:17.389Z,2.00
2023-05-04T20:09:11.853Z,1.57
2023-05-04T20:11:56.817Z,1.47
2023-05-04T20:15:00.972Z,1.80
2023-05-04T20:17:39.167Z,2.13
2023-05-04T20:23:08.279Z,2.67
2023-05-04T20:25:55.631Z,1.73
2023-05-04T20:28:24.705Z,2.30
2023-05-04T20:31:11.016Z,1.70
2023-05-04T20:33:41.535Z,2.10
2023-05-04T20:36:20.855Z,2.47
2023-05-04T20:39:08.189Z,1.80
2023-05-04T20:41:41.598Z,2.00
2023-05-04T20:44:14.889Z,2.10
2023-05-04T20:47:02.839Z,1.93
2023-05-04T20:49:44.458Z,2.00
2023-05-04T20:52:17.978Z,1.80
2023-05-04T20:57:52.581Z,2.57
2023-05-04T21:19:27.309Z,1.70
2023-05-04T21:30:56.784Z,1.90
2023-05-04T21:33:52.880Z,2.30
2023-05-04T21:36:41.557Z,2.20
2023-05-04T21:39:50.996Z,2.40
2023-05-04T21:42:33.092Z,2.33
2023-05-04T21:45:19.136Z,2.20
2023-05-04T21:48:11.291Z,2.13
2023-05-04T21:51:06.138Z,3.13
2023-05-04T21:54:19.022Z,2.40
2023-05-04T21:57:00.694Z,1.87
2023-05-04T21:59:49.951Z,2.50
2023-05-04T22:02:39.850Z,2.40
2023-05-04T22:05:23.014Z,2.30
2023-05-04T22:07:58.585Z,2.43
2023-05-04T22:10:49.281Z,2.40
2023-05-04T22:13:21.784Z,2.23
2023-05-04T22:19:18.486Z,2.17
2023-05-04T22:21:51.424Z,2.77
2023-05-04T22:24:23.296Z,2.70
2023-05-04T22:26:57.311Z,2.53
2023-05-04T22:29:41.294Z,2.57
2023-05-04T22:32:14.616Z,2.27
2023-05-04T22:34:46.538Z,2.37
2023-05-04T22:37:19.655Z,2.40
2023-05-04T22:39:57.812Z,2.50
2023-05-04T22:42:33.044Z,2.43
2023-05-04T22:45:02.275Z,2.10
2023-05-04T22:47:36.609Z,2.67
2023-05-04T22:50:06.890Z,2.80
2023-05-04T22:52:48.956Z,2.70
2023-05-04T22:55:19.560Z,3.37
2023-05-04T22:58:00.281Z,3.10
2023-05-04T23:00:34.416Z,2.57
2023-05-04T23:03:08.481Z,3.07
2023-05-04T23:06:05.140Z,2.57
2023-05-04T23:25:53.593Z,2.50
2023-05-04T23:29:01.125Z,2.50
2023-05-04T23:31:50.911Z,3.10
2023-05-04T23:34:30.422Z,2.93
2023-05-04T23:37:05.629Z,2.23
2023-05-04T23:39:51.737Z,2.60
2023-05-04T23:48:07.314Z,2.50
2023-05-04T23:50:41.734Z,3.30
2023-05-04T23:53:19.087Z,3.27
2023-05-04T23:56:10.778Z,2.80
2023-05-04T23:58:42.587Z,2.77
